createdAt,value
2019-05-26T00:01:31.196Z,80.23
2019-05-26T00:04:06.256Z,61.23
2019-05-26T00:06:43.351Z,63.23
2019-05-26T00:09:14.357Z,59.20
2019-05-26T00:11:50.942Z,42.67
2019-05-26T00:14:40.238Z,100.60
2019-05-26T00:17:12.462Z,33.83
2019-05-26T00:19:49.009Z,61.27
2019-05-26T00:22:19.125Z,29.03
2019-05-26T00:24:50.251Z,100.03
2019-05-26T00:27:25.031Z,143.10
2019-05-26T00:29:55.469Z,59.70
2019-05-26T00:32:35.691Z,66.87
2019-05-26T00:35:10.340Z,42.17
2019-05-26T00:37:49.666Z,110.97
2019-05-26T00:40:19.358Z,137.70
2019-05-26T00:42:51.163Z,124.93
2019-05-26T00:45:25.196Z,112.97
2019-05-26T00:47:59.809Z,87.80
2019-05-26T00:50:30.241Z,69.97
2019-05-26T00:53:00.275Z,80.33
2019-05-26T00:55:35.803Z,130.70
2019-05-26T00:58:08.340Z,257.00
2019-05-26T01:01:02.665Z,96.23
2019-05-26T01:03:42.885Z,99.37
2019-05-26T01:06:19.003Z,129.27
2019-05-26T01:08:52.021Z,59.10
2019-05-26T01:11:23.532Z,50.47
2019-05-26T01:13:57.089Z,66.10
2019-05-26T01:16:29.164Z,73.90
2019-05-26T01:19:02.156Z,111.63
2019-05-26T01:21:34.259Z,93.37
2019-05-26T01:24:05.435Z,73.27
2019-05-26T01:26:35.591Z,80.03
2019-05-26T01:29:06.274Z,66.93
2019-05-26T01:31:39.829Z,66.33
2019-05-26T01:34:10.251Z,89.53
2019-05-26T01:36:40.638Z,129.97
2019-05-26T01:39:15.716Z,57.07
2019-05-26T01:41:50.953Z,53.67
2019-05-26T01:44:34.440Z,145.90
2019-05-26T01:47:20.282Z,88.10
2019-05-26T01:49:51.253Z,89.77
2019-05-26T01:52:21.945Z,54.53
2019-05-26T01:54:57.946Z,88.63
2019-05-26T01:57:33.079Z,77.60
2019-05-26T02:00:21.801Z,55.53
2019-05-26T02:02:56.742Z,60.87
2019-05-26T02:05:28.690Z,293.47
2019-05-26T02:08:01.883Z,67.33
2019-05-26T02:10:32.417Z,70.10
2019-05-26T02:13:09.752Z,56.10
2019-05-26T02:15:47.200Z,61.13
2019-05-26T02:18:30.237Z,43.60
2019-05-26T02:21:00.922Z,53.67
2019-05-26T02:23:33.896Z,90.13
2019-05-26T02:26:04.845Z,61.13
2019-05-26T02:28:46.162Z,65.90
2019-05-26T02:31:16.406Z,134.43
2019-05-26T02:33:49.836Z,78.73
2019-05-26T02:36:21.351Z,83.83
2019-05-26T10:40:13.262Z,7.03
2019-05-26T10:43:47.928Z,22.43
2019-05-26T10:57:14.643Z,7.97
2019-05-26T11:00:37.421Z,13.50
2019-05-26T11:33:50.485Z,11.43
2019-05-26T11:47:03.549Z,8.00
2019-05-26T11:49:41.251Z,10.43
2019-05-26T11:52:38.503Z,8.10
2019-05-26T11:55:21.327Z,6.53
2019-05-26T11:58:05.878Z,8.63
2019-05-26T12:00:36.371Z,6.23
2019-05-26T12:03:09.575Z,13.50
2019-05-26T12:05:43.872Z,6.10
2019-05-26T12:08:31.681Z,6.20
2019-05-26T12:11:27.395Z,9.50
2019-05-26T12:14:09.215Z,6.70
2019-05-26T12:17:05.869Z,5.50
2019-05-26T12:19:59.848Z,6.50
2019-05-26T12:23:05.709Z,6.97
2019-05-26T12:26:09.183Z,14.93
2019-05-26T12:28:52.048Z,6.97
2019-05-26T12:31:38.134Z,13.50
2019-05-26T12:34:15.779Z,16.70
2019-05-26T12:37:37.611Z,5.70
2019-05-26T12:40:23.863Z,10.03
2019-05-26T12:42:56.991Z,10.03
2019-05-26T12:45:50.650Z,8.67
2019-05-26T12:49:17.395Z,13.43
2019-05-26T12:51:53.527Z,6.13
2019-05-26T12:54:30.421Z,23.60
2019-05-26T12:57:23.764Z,9.93
2019-05-26T13:00:24.109Z,9.67
2019-05-26T13:02:59.623Z,9.33
2019-05-26T13:05:37.474Z,8.43
2019-05-26T13:08:08.362Z,10.30
2019-05-26T13:10:43.202Z,23.40
2019-05-26T13:13:14.996Z,15.80
2019-05-26T13:15:47.183Z,9.10
2019-05-26T13:18:18.869Z,9.50
2019-05-26T13:20:49.445Z,5.50
2019-05-26T13:23:34.246Z,13.50
2019-05-26T13:26:07.759Z,11.03
2019-05-26T13:28:40.475Z,7.30
2019-05-26T13:31:14.369Z,10.43
2019-05-26T13:33:46.532Z,13.30
2019-05-26T13:36:19.307Z,9.87
2019-05-26T13:38:49.976Z,7.23
2019-05-26T13:41:22.903Z,8.07
2019-05-26T13:44:00.140Z,11.60
2019-05-26T13:46:36.254Z,6.90
2019-05-26T13:49:21.197Z,7.57
2019-05-26T13:52:00.677Z,8.13
2019-05-26T13:54:33.760Z,11.03
2019-05-26T13:57:04.751Z,7.03
2019-05-26T13:59:45.784Z,7.47
2019-05-26T14:02:25.639Z,14.53
2019-05-26T14:04:57.381Z,8.63
2019-05-26T14:07:33.616Z,12.73
2019-05-26T14:10:22.411Z,9.43
2019-05-26T14:13:11.411Z,10.50
2019-05-26T14:15:44.351Z,6.03
2019-05-26T14:18:22.762Z,6.27
2019-05-26T14:21:25.422Z,6.07
2019-05-26T14:24:13.852Z,13.90
2019-05-26T14:26:52.367Z,12.80
2019-05-26T14:29:40.765Z,8.97
2019-05-26T14:32:44.583Z,7.30
2019-05-26T14:35:16.688Z,13.90
2019-05-26T14:37:49.881Z,10.33
2019-05-26T14:40:27.165Z,9.13
2019-05-26T14:43:09.475Z,9.83
2019-05-26T14:45:53.777Z,10.93
2019-05-26T14:49:12.521Z,13.83
2019-05-26T14:52:43.586Z,10.90
2019-05-26T14:59:14.755Z,8.73
2019-05-26T15:05:08.892Z,14.73
2019-05-26T15:08:08.463Z,11.60
2019-05-26T15:27:34.317Z,10.90
2019-05-26T15:30:27.531Z,17.77
2019-05-26T15:33:06.803Z,11.10
2019-05-26T15:35:38.357Z,12.37
2019-05-26T15:38:08.828Z,8.70
2019-05-26T15:40:42.758Z,6.77
2019-05-26T15:43:15.418Z,12.47
2019-05-26T15:45:49.892Z,11.40
2019-05-26T15:48:41.892Z,9.50
2019-05-26T15:51:25.739Z,21.07
2019-05-26T15:54:01.783Z,14.00
2019-05-26T15:56:32.238Z,13.43
2019-05-26T15:59:17.371Z,7.27
2019-05-26T16:01:50.141Z,9.93
2019-05-26T16:04:33.703Z,33.37
2019-05-26T16:07:11.488Z,16.53
2019-05-26T16:09:42.396Z,16.23
2019-05-26T16:12:13.248Z,14.10
2019-05-26T16:14:47.864Z,7.90
2019-05-26T16:17:32.707Z,11.80
2019-05-26T16:20:08.959Z,11.40
2019-05-26T16:22:44.356Z,15.20
2019-05-26T16:25:16.776Z,11.77
2019-05-26T16:27:50.413Z,16.37
2019-05-26T16:30:20.661Z,13.30
2019-05-26T16:32:52.940Z,14.90
2019-05-26T16:35:34.773Z,14.60
2019-05-26T16:38:11.410Z,10.00
2019-05-26T16:40:44.061Z,17.03
2019-05-26T16:43:14.917Z,11.00
2019-05-26T16:45:56.514Z,20.47
2019-05-26T16:48:30.290Z,14.90
2019-05-26T16:51:01.208Z,10.07
2019-05-26T16:53:38.428Z,12.40
2019-05-26T16:56:21.544Z,19.27
2019-05-26T16:58:55.678Z,25.20
2019-05-26T17:01:29.351Z,8.47
2019-05-26T17:04:02.600Z,15.40
2019-05-26T17:09:38.493Z,9.37
2019-05-26T17:12:13.391Z,16.80
2019-05-26T17:15:22.592Z,9.17
2019-05-26T17:17:54.956Z,49.63
2019-05-26T17:23:22.329Z,23.33
2019-05-26T17:25:54.727Z,16.50
2019-05-26T17:28:24.920Z,16.40
2019-05-26T17:31:01.279Z,16.70
2019-05-26T17:33:55.060Z,34.57
2019-05-26T17:36:26.410Z,21.70
2019-05-26T17:39:14.515Z,23.87
2019-05-26T17:41:50.695Z,14.63
2019-05-26T17:44:26.758Z,26.63
2019-05-26T17:47:28.824Z,17.77
2019-05-26T17:49:51.750Z,8.97
2019-05-26T17:52:37.305Z,13.33
2019-05-26T17:55:11.891Z,13.83
2019-05-26T17:57:43.526Z,30.00
2019-05-26T18:00:19.295Z,10.50
2019-05-26T18:02:54.266Z,11.87
2019-05-26T18:05:35.397Z,11.70
2019-05-26T18:08:11.879Z,12.60
2019-05-26T18:10:45.656Z,18.47
2019-05-26T18:13:21.098Z,9.47
2019-05-26T18:15:53.668Z,9.87
2019-05-26T18:18:26.218Z,8.70
2019-05-26T18:20:59.690Z,10.43
2019-05-26T18:23:49.299Z,8.10
2019-05-26T18:26:19.797Z,25.53
2019-05-26T18:29:05.904Z,12.73
2019-05-26T18:31:37.248Z,15.20
2019-05-26T18:34:14.210Z,12.27
2019-05-26T18:36:46.147Z,14.23
2019-05-26T18:39:17.178Z,12.20
2019-05-26T18:42:12.896Z,6.33
2019-05-26T18:44:44.814Z,9.67
2019-05-26T18:47:18.340Z,7.90
2019-05-26T18:49:54.345Z,19.57
2019-05-26T18:52:43.012Z,11.00
2019-05-26T18:55:16.786Z,21.67
2019-05-26T18:57:55.661Z,12.10
2019-05-26T19:00:30.846Z,30.37
2019-05-26T19:02:58.899Z,17.13
2019-05-26T19:05:52.790Z,12.20
2019-05-26T19:08:46.856Z,38.00
2019-05-26T19:11:18.938Z,9.77
2019-05-26T19:13:57.623Z,11.43
2019-05-26T19:16:34.134Z,13.87
2019-05-26T19:19:11.873Z,17.70
2019-05-26T19:21:39.782Z,37.50
2019-05-26T19:24:12.256Z,15.03
2019-05-26T19:26:52.283Z,47.03
2019-05-26T19:29:26.144Z,17.40
2019-05-26T19:32:00.138Z,28.50
2019-05-26T19:34:33.250Z,20.30
2019-05-26T19:37:04.929Z,15.00
2019-05-26T19:39:37.921Z,21.20
2019-05-26T19:42:10.337Z,24.77
2019-05-26T19:44:41.128Z,26.60
2019-05-26T19:47:18.054Z,14.20
2019-05-26T19:49:48.434Z,22.23
2019-05-26T19:52:22.319Z,23.40
2019-05-26T19:54:56.377Z,14.43
2019-05-26T19:57:29.537Z,16.00
2019-05-26T20:00:24.355Z,21.00
2019-05-26T20:03:04.756Z,18.70
2019-05-26T20:05:40.244Z,18.60
2019-05-26T20:08:22.674Z,13.87
2019-05-26T20:11:02.089Z,19.63
2019-05-26T20:13:35.716Z,15.27
2019-05-26T20:16:12.258Z,19.03
2019-05-26T20:18:45.472Z,14.80
2019-05-26T20:21:20.434Z,19.53
2019-05-26T20:23:52.063Z,14.57
2019-05-26T20:26:30.156Z,13.87
2019-05-26T20:29:00.929Z,20.20
2019-05-26T20:31:36.878Z,11.63
2019-05-26T20:34:10.788Z,17.13
2019-05-26T20:36:49.671Z,25.37
2019-05-26T20:39:20.057Z,17.00
2019-05-26T20:42:03.759Z,23.50
2019-05-26T20:44:39.815Z,11.20
2019-05-26T20:47:10.265Z,11.93
2019-05-26T20:49:46.137Z,20.27
2019-05-26T20:52:21.806Z,15.17
2019-05-26T20:55:07.928Z,15.93
2019-05-26T20:57:44.260Z,15.00
2019-05-26T21:00:17.627Z,13.03
2019-05-26T21:03:03.428Z,13.23
2019-05-26T21:06:14.730Z,15.50
2019-05-26T21:09:02.147Z,15.80
2019-05-26T21:11:33.154Z,24.10
2019-05-26T21:14:09.817Z,33.97
2019-05-26T21:16:40.109Z,19.43
2019-05-26T21:19:10.077Z,17.43
2019-05-26T21:21:40.974Z,18.27
2019-05-26T21:24:17.886Z,32.60
2019-05-26T21:27:19.771Z,25.23
2019-05-26T21:29:56.416Z,24.60
2019-05-26T21:32:30.930Z,18.10
2019-05-26T21:34:59.384Z,20.97
2019-05-26T21:37:29.722Z,27.20
2019-05-26T21:40:01.169Z,22.93
2019-05-26T21:42:31.812Z,28.13
2019-05-26T21:45:02.523Z,24.20
2019-05-26T21:47:38.536Z,33.93
2019-05-26T21:50:10.055Z,21.27
2019-05-26T21:52:42.302Z,15.37
2019-05-26T21:55:14.877Z,25.93
2019-05-26T21:57:46.267Z,13.70
2019-05-26T22:00:27.248Z,24.70
2019-05-26T22:02:57.470Z,21.77
2019-05-26T22:05:27.441Z,22.13
2019-05-26T22:08:02.940Z,38.07
2019-05-26T22:10:33.021Z,21.33
2019-05-26T22:13:04.859Z,31.63
2019-05-26T22:15:36.759Z,39.50
2019-05-26T22:18:06.844Z,32.53
2019-05-26T22:20:37.086Z,33.97
2019-05-26T22:23:06.953Z,29.53
2019-05-26T22:25:37.312Z,26.17
2019-05-26T22:28:07.359Z,42.20
2019-05-26T22:30:40.020Z,29.27
2019-05-26T22:33:14.955Z,29.83
2019-05-26T22:35:48.051Z,43.47
2019-05-26T22:38:18.539Z,34.50
2019-05-26T22:40:52.254Z,39.97
2019-05-26T22:43:23.776Z,33.47
2019-05-26T22:45:53.827Z,28.40
2019-05-26T22:48:24.146Z,25.37
2019-05-26T22:50:54.317Z,25.70
2019-05-26T22:53:24.439Z,27.13
2019-05-26T22:55:54.517Z,47.20
2019-05-26T22:58:27.087Z,27.30
2019-05-26T23:00:58.621Z,19.53
2019-05-26T23:03:35.388Z,21.70
2019-05-26T23:06:05.314Z,39.07
2019-05-26T23:08:35.772Z,23.77
2019-05-26T23:11:07.101Z,23.97
2019-05-26T23:13:41.689Z,15.23
2019-05-26T23:16:11.802Z,29.53
2019-05-26T23:18:49.787Z,28.97
2019-05-26T23:21:25.051Z,21.87
2019-05-26T23:24:03.412Z,32.57
2019-05-26T23:26:51.045Z,32.50
2019-05-26T23:29:25.834Z,62.13
2019-05-26T23:32:04.287Z,17.70
2019-05-26T23:34:34.405Z,32.30
2019-05-26T23:37:07.090Z,29.93
2019-05-26T23:39:37.584Z,27.73
2019-05-26T23:42:12.496Z,33.03
2019-05-26T23:44:48.262Z,17.23
2019-05-26T23:47:19.625Z,15.63
2019-05-26T23:49:51.814Z,17.93
2019-05-26T23:52:21.795Z,21.93
2019-05-26T23:54:51.939Z,24.20
2019-05-26T23:57:25.510Z,12.47
2019-05-26T23:59:57.050Z,14.77
